This is the latest recevied weather packets stored in our database for station/object KE5KUL-13. If no packets are shown the sender has not sent any weather packets the latest 10 day(s).
| Time | Temp. | Humidity | Pressure | Rain* | Wind** | Luminosity | Snow |
|---|---|---|---|---|---|---|---|
| 1777599018 | 14.44° C | 61% | 1016.7 hPa | 0 mm | - | - | - |
| 1777598418 | 14.44° C | 61% | 1016.5 hPa | 0 mm | - | - | - |
| 1777597817 | 15° C | 60% | 1016.5 hPa | 0 mm | - | - | - |
| 1777597217 | 15° C | 60% | 1016.3 hPa | 0 mm | - | - | - |
| 1777596618 | 15° C | 59% | 1016.4 hPa | 0 mm | - | - | - |
| 1777596018 | 15° C | 58% | 1016.2 hPa | 0 mm | - | - | - |
| 1777595417 | 15.56° C | 58% | 1016.1 hPa | 0 mm | - | - | - |
| 1777594817 | 15.56° C | 57% | 1016.2 hPa | 0 mm | - | - | - |
| 1777594217 | 15.56° C | 56% | 1016.1 hPa | 0 mm | - | - | - |
| 1777593618 | 16.11° C | 55% | 1016.1 hPa | 0 mm | - | - | - |
| 1777593017 | 16.11° C | 54% | 1015.9 hPa | 0 mm | - | - | - |
| 1777592417 | 16.67° C | 53% | 1016.1 hPa | 0 mm | - | - | - |
| 1777591817 | 16.67° C | 51% | 1016 hPa | 0 mm | - | - | - |
| 1777591217 | 17.22° C | 49% | 1015.8 hPa | 0 mm | - | - | - |
| 1777590617 | 17.22° C | 48% | 1015.8 hPa | 0 mm | - | - | - |
| 1777590017 | 17.22° C | 48% | 1015.7 hPa | 0 mm | - | - | - |
| 1777589417 | 17.22° C | 47% | 1015.8 hPa | 0 mm | - | - | - |
| 1777588817 | 17.22° C | 46% | 1015.7 hPa | 0 mm | - | - | - |
| 1777588219 | 17.78° C | 45% | 1015.9 hPa | 0 mm | - | - | - |
| 1777587617 | 17.78° C | 45% | 1016.1 hPa | 0 mm | - | - | - |
| 1777587017 | 17.78° C | 44% | 1016 hPa | 0 mm | - | - | - |
| 1777586419 | 18.33° C | 43% | 1016 hPa | 0 mm | - | - | - |
| 1777586226 | 18.33° C | 39% | 1016.2 hPa | 0 mm | - | - | - |
| 1777581619 | 20.56° C | 34% | 1017.6 hPa | 0 mm | - | - | - |
| 1777581019 | 21.11° C | 31% | 1017.6 hPa | 0 mm | - | - | - |
* Rain latest hour (hover to see other rain measurements)
** Current wind speed in m/s (hover to see current wind gust speed)